.
WxDataArchive / Data Records for 2009-12-06
2009-12-05 December 2009 2009-12-07

Data Records for Sunday, 06 December 2009

Time	Temp	Chill	HIndex	Humid	Dewpt	 Wind 	HiWind	WindDir	Rain 	Barom 
-----	----	-----	------	-----	-----	------	------	-------	-----	----- 
00:00	16.2	16.2	16.2	84	12.2	0	0	---	0.00	30.268 
00:05	16.2	16.2	16.2	84	12.2	0	0	---	0.00	30.268 
00:10	16.2	16.2	16.2	84	12.2	0	0	---	0.00	30.268 
00:15	16.4	16.4	16.4	84	12.4	0	0	---	0.00	30.267 
00:20	16.4	16.4	16.4	84	12.4	0	0	---	0.00	30.267 
00:25	16.4	16.4	16.4	84	12.4	0	0	---	0.00	30.267 
00:30	16.4	16.4	16.4	84	12.4	0	0	---	0.00	30.267 
00:35	16.2	16.2	16.2	84	12.2	0	0	---	0.00	30.267 
00:40	16.2	16.2	16.2	85	12.5	0	0	---	0.00	30.267 
00:45	16.2	16.2	16.2	85	12.5	0	0	---	0.00	30.268 
00:50	16.2	16.2	16.2	85	12.5	0	0	---	0.00	30.268 
00:55	16.2	16.2	16.2	85	12.5	0	0	---	0.00	30.268 
01:00	16.2	16.2	16.2	85	12.5	0	0	---	0.00	30.268 
01:05	16.1	16.1	16.1	85	12.4	0	0	---	0.00	30.268 
01:10	15.9	15.9	15.9	85	12.2	0	0	---	0.00	30.268 
01:15	15.9	15.9	15.9	85	12.2	0	0	---	0.00	30.268 
01:20	15.9	15.9	15.9	86	12.5	0	0	---	0.00	30.268 
01:25	15.9	15.9	15.9	86	12.5	0	0	---	0.00	30.268 
01:30	15.9	15.9	15.9	86	12.5	0	0	---	0.00	30.274 
01:35	16.1	16.1	16.1	86	12.7	0	0	---	0.00	30.274 
01:40	16.1	16.1	16.1	86	12.7	0	0	---	0.00	30.274 
01:45	16.1	16.1	16.1	86	12.7	0	0	---	0.00	30.274 
01:50	16.1	16.1	16.1	86	12.7	0	0	---	0.00	30.274 
01:55	16.1	16.1	16.1	86	12.7	0	0	---	0.00	30.274 
02:00	16.1	16.1	16.1	86	12.7	0	0	---	0.00	30.273 
02:05	16.2	16.2	16.2	86	12.8	0	0	---	0.00	30.273 
02:10	16.4	16.4	16.4	86	13.0	0	0	---	0.00	30.273 
02:15	16.4	16.4	16.4	86	13.0	0	0	---	0.00	30.275 
02:20	16.7	16.7	16.7	87	13.5	0	0	---	0.00	30.275 
02:25	16.9	16.9	16.9	87	13.7	0	0	---	0.00	30.275 
02:30	16.9	16.9	16.9	87	13.7	0	0	---	0.00	30.281 
02:35	17.0	17.0	17.0	87	13.8	0	0	---	0.00	30.281 
02:40	17.2	17.2	17.2	87	14.0	0	0	---	0.00	30.281 
02:45	17.3	17.3	17.3	87	14.1	0	0	---	0.00	30.285 
02:50	17.3	17.3	17.3	86	13.8	0	0	---	0.00	30.285 
02:55	17.3	17.3	17.3	86	13.8	0	0	---	0.00	30.285 
03:00	17.3	17.3	17.3	86	13.8	0	0	---	0.00	30.287 
03:05	17.7	17.7	17.7	86	14.2	0	0	---	0.00	30.287 
03:10	17.7	17.7	17.7	86	14.2	0	0	---	0.00	30.287 
03:15	17.8	17.8	17.8	86	14.3	0	0	---	0.00	30.295 
03:20	17.8	17.8	17.8	86	14.3	0	0	---	0.00	30.295 
03:25	17.8	17.8	17.8	85	14.1	0	0	---	0.00	30.295 
03:30	18.0	18.0	18.0	85	14.3	0	0	---	0.00	30.296 
03:35	18.0	18.0	18.0	85	14.3	0	0	---	0.00	30.296 
03:40	18.1	18.1	18.1	85	14.4	0	0	---	0.00	30.296 
03:45	18.3	18.3	18.3	85	14.6	0	0	---	0.00	30.295 
03:50	18.4	18.4	18.4	84	14.4	0	0	---	0.00	30.295 
03:55	18.4	18.4	18.4	84	14.4	0	1	248	0.00	30.295 
04:00	18.4	18.4	18.4	84	14.4	0	0	---	0.00	30.295 
04:05	18.4	18.4	18.4	83	14.1	0	1	248	0.00	30.295 
04:10	18.4	18.4	18.4	83	14.1	0	0	---	0.00	30.295 
04:15	18.4	18.4	18.4	83	14.1	0	0	---	0.00	30.295 
04:20	18.4	18.4	18.4	83	14.1	0	0	---	0.00	30.295 
04:25	18.3	18.3	18.3	83	14.0	0	0	---	0.00	30.295 
04:30	18.3	18.3	18.3	82	13.7	0	0	---	0.00	30.296 
04:35	18.1	18.1	18.1	82	13.5	0	0	---	0.00	30.296 
04:40	18.0	18.0	18.0	83	13.7	0	0	---	0.00	30.296 
04:45	18.1	18.1	18.1	83	13.8	0	0	---	0.00	30.300 
04:50	18.1	18.1	18.1	83	13.8	0	0	---	0.00	30.300 
04:55	18.1	18.1	18.1	83	13.8	0	0	---	0.00	30.300 
05:00	18.3	18.3	18.3	83	14.0	0	0	---	0.00	30.307 
05:05	18.3	18.3	18.3	83	14.0	0	0	---	0.00	30.307 
05:10	18.3	18.3	18.3	83	14.0	0	0	---	0.00	30.307 
05:15	18.3	18.3	18.3	82	13.7	0	0	---	0.00	30.312 
05:20	18.3	18.3	18.3	83	14.0	0	0	---	0.00	30.312 
05:25	18.3	18.3	18.3	83	14.0	0	0	---	0.00	30.312 
05:30	18.4	18.4	18.4	83	14.1	0	0	---	0.00	30.312 
05:35	18.6	18.6	18.6	82	14.0	0	0	---	0.00	30.312 
05:40	18.6	18.6	18.6	82	14.0	0	0	---	0.00	30.312 
05:45	18.8	18.8	18.8	82	14.2	0	0	---	0.00	30.311 
05:50	18.8	18.8	18.8	82	14.2	0	0	---	0.00	30.311 
05:55	18.8	18.8	18.8	82	14.2	0	1	248	0.00	30.311 
06:00	18.8	18.8	18.8	81	14.0	0	0	---	0.00	30.316 
06:05	18.8	18.8	18.8	81	14.0	0	0	---	0.00	30.316 
06:10	18.8	18.8	18.8	81	14.0	0	0	---	0.00	30.316 
06:15	18.6	18.6	18.6	81	13.8	0	0	---	0.00	30.323 
06:20	18.6	18.6	18.6	81	13.8	0	0	---	0.00	30.323 
06:25	18.4	18.4	18.4	81	13.6	0	0	---	0.00	30.323 
06:30	18.3	18.3	18.3	81	13.5	0	0	---	0.00	30.326 
06:35	18.3	18.3	18.3	82	13.7	0	0	---	0.00	30.326 
06:40	18.3	18.3	18.3	82	13.7	0	0	---	0.00	30.326 
06:45	18.3	18.3	18.3	82	13.7	0	0	---	0.00	30.328 
06:50	18.3	18.3	18.3	82	13.7	0	0	---	0.00	30.328 
06:55	18.1	18.1	18.1	82	13.5	0	0	---	0.00	30.328 
07:00	18.1	18.1	18.1	82	13.5	0	0	---	0.00	30.335 
07:05	18.1	18.1	18.1	82	13.5	0	0	---	0.00	30.335 
07:10	18.1	18.1	18.1	82	13.5	0	0	---	0.00	30.335 
07:15	18.3	18.3	18.3	83	14.0	0	0	---	0.00	30.340 
07:20	18.6	18.6	18.6	82	14.0	0	1	248	0.00	30.340 
07:25	18.8	18.8	18.8	82	14.2	0	0	---	0.00	30.340 
07:30	18.9	18.9	18.9	82	14.3	0	0	---	0.00	30.337 
07:35	18.9	18.9	18.9	81	14.1	0	0	---	0.00	30.337 
07:40	18.9	18.9	18.9	81	14.1	0	0	---	0.00	30.337 
07:45	18.9	18.9	18.9	81	14.1	0	0	---	0.00	30.341 
07:50	18.9	18.9	18.9	81	14.1	0	1	248	0.00	30.341 
07:55	18.9	18.9	18.9	81	14.1	0	0	---	0.00	30.341 
08:00	19.1	19.1	19.1	81	14.2	0	0	---	0.00	30.342 
08:05	19.1	19.1	19.1	81	14.2	0	0	---	0.00	30.342 
08:10	19.2	19.2	19.2	81	14.3	0	1	248	0.00	30.342 
08:15	19.4	19.4	19.4	81	14.5	0	0	---	0.00	30.346 
08:20	19.4	19.4	19.4	81	14.5	0	0	---	0.00	30.346 
08:25	19.7	19.7	19.7	81	14.8	0	1	248	0.00	30.346 
08:30	20.0	20.0	20.0	81	15.1	0	3	248	0.00	30.343 
08:35	20.3	20.3	20.3	81	15.4	0	1	248	0.00	30.343 
08:40	20.6	20.6	20.6	80	15.4	0	2	248	0.00	30.343 
08:45	21.1	21.1	21.1	80	15.9	0	3	248	0.00	30.346 
08:50	21.6	21.6	21.6	79	16.1	1	3	248	0.00	30.346 
08:55	22.1	22.1	22.1	79	16.6	0	2	248	0.00	30.346 
09:00	22.5	22.5	22.5	77	16.4	1	5	248	0.00	30.348 
09:05	23.0	23.0	23.0	77	16.9	1	3	225	0.00	30.348 
09:10	23.5	23.5	23.5	75	16.8	1	4	225	0.00	30.348 
09:15	23.8	23.8	23.8	74	16.7	0	3	225	0.00	30.351 
09:20	24.1	24.1	24.1	73	16.7	1	4	248	0.00	30.351 
09:25	24.4	24.4	24.4	73	17.0	0	5	248	0.00	30.351 
09:30	24.7	24.7	24.7	73	17.3	1	3	270	0.00	30.349 
09:35	25.0	25.0	25.0	73	17.6	0	2	270	0.00	30.349 
09:40	25.3	25.3	25.3	73	17.9	1	3	270	0.00	30.349 
09:45	25.6	25.6	25.6	72	17.8	1	5	248	0.00	30.355 
09:50	26.0	26.0	26.0	71	17.9	1	3	248	0.00	30.355 
09:55	26.4	26.4	26.4	71	18.3	1	4	292	0.00	30.355 
10:00	26.9	26.9	26.9	70	18.4	1	4	225	0.00	30.355 
10:05	27.2	27.2	27.2	70	18.7	1	5	248	0.00	30.355 
10:10	27.6	27.6	27.6	69	18.8	1	4	248	0.00	30.355 
10:15	28.1	28.1	28.1	68	18.9	1	4	248	0.00	30.350 
10:20	28.4	28.4	28.4	66	18.5	2	5	248	0.00	30.350 
10:25	28.8	28.8	28.8	65	18.5	2	6	270	0.00	30.350 
10:30	29.1	29.1	29.1	64	18.5	2	7	225	0.00	30.349 
10:35	29.4	29.4	29.4	63	18.4	2	5	225	0.00	30.349 
10:40	29.7	29.7	29.7	63	18.7	2	6	248	0.00	30.349 
10:45	30.1	30.1	30.1	62	18.7	1	6	248	0.00	30.349 
10:50	30.6	30.6	30.6	62	19.2	2	7	248	0.00	30.349 
10:55	30.9	30.9	30.9	62	19.4	1	6	270	0.00	30.349 
11:00	31.0	31.0	31.0	58	18.0	3	6	248	0.00	30.354 
11:05	31.0	31.0	31.0	60	18.8	1	3	225	0.00	30.354 
11:10	31.3	31.3	31.3	62	19.8	1	3	225	0.00	30.354 
11:15	31.5	31.5	31.5	59	18.8	2	6	248	0.00	30.340 
11:20	31.3	31.3	31.3	60	19.0	2	6	248	0.00	30.340 
11:25	31.3	31.3	31.3	59	18.7	2	6	270	0.00	30.340 
11:30	31.5	31.5	31.5	60	19.2	2	4	248	0.00	30.337 
11:35	31.8	31.8	31.8	60	19.5	2	5	248	0.00	30.337 
11:40	32.1	32.1	32.1	59	19.4	2	4	270	0.00	30.337 
11:45	32.5	32.5	32.5	59	19.8	2	5	248	0.00	30.325 
11:50	32.7	32.7	32.7	59	20.0	2	6	248	0.00	30.325 
11:55	32.7	32.7	32.7	59	20.0	2	5	248	0.00	30.325 
12:00	32.8	32.8	32.8	59	20.1	2	5	270	0.00	30.323 
12:05	32.9	32.9	32.9	58	19.8	2	6	248	0.00	30.323 
12:10	33.1	33.1	33.1	57	19.5	2	5	225	0.00	30.323 
12:15	33.4	33.4	33.4	57	19.8	1	5	248	0.00	30.313 
12:20	33.5	33.5	33.5	56	19.5	2	6	248	0.00	30.313 
12:25	33.5	33.5	33.5	57	19.9	1	3	248	0.00	30.313 
12:30	33.7	33.7	33.7	56	19.7	2	6	248	0.00	30.304 
12:35	34.0	34.0	34.0	55	19.6	2	7	248	0.00	30.304 
12:40	34.1	34.1	34.1	54	19.2	3	6	248	0.00	30.304 
12:45	34.6	34.6	34.6	54	19.7	2	7	248	0.00	30.299 
12:50	34.6	34.6	34.6	54	19.7	2	7	248	0.00	30.299 
12:55	34.9	34.9	34.9	53	19.5	2	6	248	0.00	30.299 
13:00	35.2	35.2	35.2	54	20.2	1	7	225	0.00	30.291 
13:05	35.3	35.3	35.3	53	19.9	1	5	248	0.00	30.291 
13:10	35.3	35.3	35.3	53	19.9	2	6	270	0.00	30.291 
13:15	35.5	35.5	35.5	52	19.6	2	6	248	0.00	30.287 
13:20	35.6	35.6	35.6	52	19.7	2	6	270	0.00	30.287 
13:25	35.6	35.6	35.6	51	19.3	2	5	248	0.00	30.287 
13:30	35.5	35.5	35.5	50	18.7	3	9	248	0.00	30.280 
13:35	35.5	35.5	35.5	50	18.7	2	6	248	0.00	30.280 
13:40	35.6	35.6	35.6	52	19.7	1	7	90	0.00	30.280 
13:45	35.6	35.6	35.6	52	19.7	2	10	112	0.00	30.273 
13:50	35.6	35.6	35.6	53	20.2	1	3	248	0.00	30.273 
13:55	35.6	35.6	35.6	52	19.7	1	4	45	0.00	30.273 
14:00	35.8	35.8	35.8	50	19.0	2	6	248	0.00	30.275 
14:05	35.8	35.8	35.8	50	19.0	3	7	248	0.00	30.275 
14:10	35.8	35.8	35.8	50	19.0	2	6	270	0.00	30.275 
14:15	35.9	35.9	35.9	50	19.1	2	5	270	0.00	30.276 
14:20	35.9	35.9	35.9	50	19.1	1	6	248	0.00	30.276 
14:25	35.8	35.8	35.8	50	19.0	1	3	68	0.00	30.276 
14:30	35.5	35.5	35.5	50	18.7	1	5	315	0.00	30.273 
14:35	35.2	35.2	35.2	51	18.9	1	4	90	0.00	30.273 
14:40	34.9	34.9	34.9	53	19.5	1	7	90	0.00	30.273 
14:45	34.7	34.7	34.7	53	19.3	1	3	248	0.00	30.273 
14:50	34.7	34.7	34.7	53	19.3	1	4	248	0.00	30.273 
14:55	34.6	34.6	34.6	50	17.9	2	6	248	0.00	30.273 
15:00	34.6	34.6	34.6	51	18.4	1	4	0	0.00	30.280 
15:05	34.6	34.6	34.6	52	18.8	1	3	248	0.00	30.280 
15:10	34.6	34.6	34.6	53	19.2	1	3	248	0.00	30.280 
15:15	34.6	34.6	34.6	54	19.7	1	5	225	0.00	30.286 
15:20	34.4	34.4	34.4	54	19.5	1	5	270	0.00	30.286 
15:25	34.4	34.4	34.4	54	19.5	1	3	225	0.00	30.286 
15:30	34.4	34.4	34.4	54	19.5	1	4	270	0.00	30.287 
15:35	34.4	34.4	34.4	54	19.5	1	4	248	0.00	30.287 
15:40	34.3	34.3	34.3	53	19.0	1	4	248	0.00	30.287 
15:45	34.3	34.3	34.3	54	19.4	1	4	248	0.00	30.289 
15:50	34.1	34.1	34.1	54	19.2	1	4	270	0.00	30.289 
15:55	34.0	34.0	34.0	54	19.1	1	4	90	0.00	30.289 
16:00	33.8	33.8	33.8	54	18.9	1	4	225	0.00	30.291 
16:05	33.7	33.7	33.7	54	18.8	1	4	248	0.00	30.291 
16:10	33.5	33.5	33.5	56	19.5	0	3	248	0.00	30.291 
16:15	33.4	33.4	33.4	56	19.4	1	5	45	0.00	30.293 
16:20	33.4	33.4	33.4	56	19.4	1	5	248	0.00	30.293 
16:25	33.2	33.2	33.2	58	20.0	0	1	248	0.00	30.293 
16:30	33.1	33.1	33.1	58	20.0	0	3	202	0.00	30.292 
16:35	32.9	32.9	32.9	58	19.8	0	2	225	0.00	30.292 
16:40	32.8	32.8	32.8	58	19.7	0	2	225	0.00	30.292 
16:45	32.8	32.8	32.8	58	19.7	0	2	112	0.00	30.305 
16:50	32.7	32.7	32.7	58	19.6	0	2	112	0.00	30.305 
16:55	32.5	32.5	32.5	59	19.8	0	1	112	0.00	30.305 
17:00	32.4	32.4	32.4	60	20.1	0	1	112	0.00	30.305 
17:05	32.2	32.2	32.2	61	20.3	0	0	---	0.00	30.305 
17:10	31.9	31.9	31.9	61	20.0	0	0	---	0.00	30.305 
17:15	31.8	31.8	31.8	62	20.3	0	0	---	0.00	30.306 
17:20	31.5	31.5	31.5	62	20.0	0	0	---	0.00	30.306 
17:25	31.3	31.3	31.3	62	19.8	0	0	---	0.00	30.306 
17:30	31.0	31.0	31.0	62	19.5	0	0	---	0.00	30.306 
17:35	30.9	30.9	30.9	63	19.8	0	1	112	0.00	30.306 
17:40	30.9	30.9	30.9	63	19.8	0	2	112	0.00	30.306 
17:45	30.9	30.9	30.9	63	19.8	0	1	112	0.00	30.307 
17:50	30.9	30.9	30.9	63	19.8	0	1	112	0.00	30.307 
17:55	30.9	30.9	30.9	62	19.4	0	1	112	0.00	30.307 
18:00	30.9	30.9	30.9	63	19.8	0	1	112	0.00	30.306 
18:05	30.7	30.7	30.7	63	19.6	0	1	112	0.00	30.306 
18:10	30.7	30.7	30.7	63	19.6	0	2	112	0.00	30.306 
18:15	30.7	30.7	30.7	63	19.6	0	2	112	0.00	30.307 
18:20	30.7	30.7	30.7	63	19.6	0	2	112	0.00	30.307 
18:25	30.6	30.6	30.6	63	19.5	0	0	---	0.00	30.307 
18:30	30.4	30.4	30.4	63	19.3	0	0	---	0.00	30.303 
18:35	30.3	30.3	30.3	64	19.6	0	1	112	0.00	30.303 
18:40	30.1	30.1	30.1	64	19.4	0	1	112	0.00	30.303 
18:45	30.3	30.3	30.3	64	19.6	0	2	112	0.00	30.302 
18:50	30.3	30.3	30.3	64	19.6	0	0	---	0.00	30.302 
18:55	30.1	30.1	30.1	65	19.8	0	1	112	0.00	30.302 
19:00	30.1	30.1	30.1	65	19.8	0	1	112	0.00	30.300 
19:05	30.1	30.1	30.1	65	19.8	0	0	---	0.00	30.300 
19:10	30.0	30.0	30.0	66	20.0	0	0	---	0.00	30.300 
19:15	29.8	29.8	29.8	66	19.8	0	0	---	0.00	30.301 
19:20	29.5	29.5	29.5	67	19.9	0	0	---	0.00	30.301 
19:25	29.4	29.4	29.4	67	19.8	0	0	---	0.00	30.301 
19:30	29.3	29.3	29.3	68	20.1	0	0	---	0.00	30.293 
19:35	29.1	29.1	29.1	68	19.9	0	0	---	0.00	30.293 
19:40	29.0	29.0	29.0	69	20.1	0	0	---	0.00	30.293 
19:45	28.8	28.8	28.8	69	19.9	0	0	---	0.00	30.297 
19:50	28.7	28.7	28.7	70	20.2	0	0	---	0.00	30.297 
19:55	28.5	28.5	28.5	71	20.3	0	0	---	0.00	30.297 
20:00	28.4	28.4	28.4	72	20.5	0	0	---	0.00	30.293 
20:05	28.2	28.2	28.2	72	20.4	0	0	---	0.00	30.293 
20:10	28.2	28.2	28.2	72	20.4	0	0	---	0.00	30.293 
20:15	28.1	28.1	28.1	72	20.3	0	1	112	0.00	30.289 
20:20	28.1	28.1	28.1	72	20.3	0	0	---	0.00	30.289 
20:25	28.1	28.1	28.1	73	20.6	0	0	---	0.00	30.289 
20:30	27.9	27.9	27.9	73	20.4	0	0	---	0.00	30.284 
20:35	27.9	27.9	27.9	73	20.4	0	0	---	0.00	30.284 
20:40	27.9	27.9	27.9	73	20.4	0	0	---	0.00	30.284 
20:45	27.9	27.9	27.9	73	20.4	0	0	---	0.00	30.287 
20:50	27.9	27.9	27.9	73	20.4	0	0	---	0.00	30.287 
20:55	27.9	27.9	27.9	73	20.4	0	0	---	0.00	30.287 
21:00	27.8	27.8	27.8	73	20.3	0	0	---	0.00	30.287 
21:05	27.8	27.8	27.8	73	20.3	0	0	---	0.00	30.287 
21:10	27.6	27.6	27.6	73	20.1	0	0	---	0.00	30.287 
21:15	27.5	27.5	27.5	73	20.0	0	0	---	0.00	30.271 
21:20	27.5	27.5	27.5	74	20.3	0	0	---	0.00	30.271 
21:25	27.3	27.3	27.3	74	20.1	0	0	---	0.00	30.271 
21:30	27.3	27.3	27.3	74	20.1	0	1	112	0.00	30.269 
21:35	27.3	27.3	27.3	74	20.1	0	1	112	0.00	30.269 
21:40	27.3	27.3	27.3	74	20.1	0	1	112	0.00	30.269 
21:45	27.3	27.3	27.3	74	20.1	0	2	112	0.00	30.256 
21:50	27.5	27.5	27.5	74	20.3	0	2	112	0.00	30.256 
21:55	27.5	27.5	27.5	74	20.3	0	1	112	0.00	30.256 
22:00	27.5	27.5	27.5	74	20.3	0	1	112	0.00	30.235 
22:05	27.3	27.3	27.3	73	19.8	0	2	112	0.00	30.235 
22:10	27.2	27.2	27.2	73	19.7	0	1	112	0.00	30.235 
22:15	27.0	27.0	27.0	73	19.5	0	0	---	0.00	30.237 
22:20	27.0	27.0	27.0	74	19.8	0	0	---	0.00	30.237 
22:25	26.9	26.9	26.9	74	19.7	0	1	112	0.00	30.237 
22:30	26.9	26.9	26.9	74	19.7	0	1	112	0.00	30.248 
22:35	26.7	26.7	26.7	75	19.9	0	0	---	0.00	30.248 
22:40	26.6	26.6	26.6	75	19.8	0	1	112	0.00	30.248 
22:45	26.4	26.4	26.4	75	19.6	0	1	112	0.00	30.220 
22:50	26.4	26.4	26.4	75	19.6	0	2	112	0.00	30.220 
22:55	26.3	26.3	26.3	75	19.5	0	0	---	0.00	30.220 
23:00	26.1	26.1	26.1	75	19.3	0	0	---	0.00	30.236 
23:05	26.0	26.0	26.0	75	19.2	0	0	---	0.00	30.236 
23:10	25.7	25.7	25.7	76	19.2	0	0	---	0.00	30.236 
23:15	25.4	25.4	25.4	76	18.9	0	0	---	0.00	30.241 
23:20	25.1	25.1	25.1	76	18.6	0	0	---	0.00	30.241 
23:25	24.8	24.8	24.8	77	18.6	0	0	---	0.00	30.241 
23:30	24.7	24.7	24.7	77	18.5	0	0	---	0.00	30.250 
23:35	24.4	24.4	24.4	77	18.2	0	0	---	0.00	30.250 
23:40	24.1	24.1	24.1	78	18.3	0	0	---	0.00	30.250 
23:45	23.8	23.8	23.8	78	18.0	0	0	---	0.00	30.249 
23:50	23.5	23.5	23.5	79	18.0	0	0	---	0.00	30.249 
23:55	23.3	23.3	23.3	80	18.1	0	0	---	0.00	30.249 

CoCoRaHS
IN-AL-39
A2 Web Hosting
Creative Commons License
GoDaddy
search engine by freefind advanced

loaded 2018-11-17 12:02:09 • last modified 2010-11-18 10:43:29
Privacy PolicyDisclaimer
• wx.awcolley.com is powered by PmWiki v.2002016 •
• all content (unless otherwise noted) © 2018 A W Colley